Terminal Aerodrome Forecast
Issued by NWS

Home | Current Version | Previous Version | Text Only | Print | Product List | Glossary On
Versions: 1 2 3 4 5 6 7 8 9 10 11 12 13 14 15 16 17 18
000
FTUS45 KABQ 311128
TAFTCC
TAF
KTCC 311128Z 3112/0112 25006KT P6SM SCT050 SCT150
     FM311400 31008KT P6SM SCT070 SCT120
     FM311600 04013KT P6SM SCT080 BKN120
     FM312000 02015G25KT P6SM VCTS BKN080CB
     FM010300 07007KT P6SM VCSH BKN030 OVC050=

USA.gov is the U.S. government's official web portal to all federal, state and local government web resources and services.